createdAt,value
2022-09-15T00:02:35.557Z,17.50
2022-09-15T00:05:22.642Z,17.50
2022-09-15T00:07:57.228Z,17.60
2022-09-15T00:10:39.620Z,17.50
2022-09-15T00:13:28.455Z,17.50
2022-09-15T00:16:13.533Z,17.50
2022-09-15T00:18:54.177Z,17.50
2022-09-15T00:21:30.504Z,17.50
2022-09-15T00:24:05.109Z,17.50
2022-09-15T00:26:51.463Z,17.60
2022-09-15T00:29:39.772Z,17.50
2022-09-15T00:32:14.082Z,17.50
2022-09-15T00:35:08.638Z,17.60
2022-09-15T00:37:57.830Z,17.60
2022-09-15T00:40:33.983Z,17.50
2022-09-15T00:43:10.967Z,17.60
2022-09-15T00:45:58.704Z,17.50
2022-09-15T00:49:00.503Z,17.60
2022-09-15T00:52:07.694Z,17.60
2022-09-15T00:55:11.749Z,17.60
2022-09-15T00:58:37.634Z,17.60
2022-09-15T01:01:21.613Z,17.60
2022-09-15T01:03:58.509Z,17.50
2022-09-15T01:06:47.518Z,17.50
2022-09-15T01:09:45.877Z,17.50
2022-09-15T01:12:39.831Z,17.50
2022-09-15T01:15:23.192Z,17.40
2022-09-15T01:18:13.398Z,17.40
2022-09-15T01:21:19.852Z,17.40
2022-09-15T01:24:20.266Z,17.30
2022-09-15T01:27:42.687Z,17.30
2022-09-15T01:30:24.318Z,17.30
2022-09-15T01:33:17.821Z,17.30
2022-09-15T01:36:13.161Z,17.30
2022-09-15T01:38:56.774Z,17.30
2022-09-15T01:41:34.879Z,17.20
2022-09-15T01:44:11.101Z,17.20
2022-09-15T01:46:57.317Z,17.20
2022-09-15T01:49:33.278Z,17.20
2022-09-15T01:52:09.879Z,17.10
2022-09-15T01:54:54.467Z,17.00
2022-09-15T01:57:30.132Z,17.10
2022-09-15T02:00:07.201Z,17.10
2022-09-15T02:02:57.131Z,17.00
2022-09-15T02:05:35.747Z,17.10
2022-09-15T02:08:32.321Z,17.10
2022-09-15T02:11:16.319Z,17.20
2022-09-15T02:14:18.266Z,17.10
2022-09-15T02:16:56.277Z,17.20
2022-09-15T02:19:38.271Z,17.20
2022-09-15T02:22:25.048Z,17.20
2022-09-15T02:25:19.463Z,17.10
2022-09-15T02:28:11.399Z,17.10
2022-09-15T02:31:27.732Z,17.10
2022-09-15T02:34:12.459Z,17.10
2022-09-15T02:36:50.156Z,17.10
2022-09-15T02:39:28.638Z,17.10
2022-09-15T02:42:04.391Z,17.10
2022-09-15T02:44:39.308Z,17.00
2022-09-15T02:47:15.427Z,17.10
2022-09-15T02:49:57.833Z,17.10
2022-09-15T02:52:34.021Z,17.10
2022-09-15T02:55:10.367Z,17.10
2022-09-15T02:57:46.226Z,17.20
2022-09-15T03:00:57.923Z,16.60
2022-09-15T03:03:32.958Z,17.20
2022-09-15T03:06:18.351Z,17.30
2022-09-15T03:09:11.873Z,17.30
2022-09-15T03:11:58.423Z,17.30
2022-09-15T03:14:40.223Z,16.30
2022-09-15T03:17:16.004Z,17.40
2022-09-15T03:19:50.903Z,17.50
2022-09-15T03:22:25.646Z,17.50
2022-09-15T03:25:03.733Z,17.50
2022-09-15T03:27:51.720Z,17.50
2022-09-15T03:30:33.648Z,17.50
2022-09-15T03:33:16.248Z,16.00
2022-09-15T03:35:53.149Z,17.50
2022-09-15T03:38:53.128Z,16.80
2022-09-15T03:41:29.787Z,17.60
2022-09-15T03:44:16.082Z,17.60
2022-09-15T03:46:51.913Z,17.50
2022-09-15T03:49:27.659Z,17.50
2022-09-15T03:52:17.030Z,17.60
2022-09-15T03:54:51.802Z,17.60
2022-09-15T03:57:28.643Z,17.50
2022-09-15T04:00:07.803Z,17.60
2022-09-15T04:02:52.110Z,17.50
2022-09-15T04:05:29.155Z,17.60
2022-09-15T04:08:28.138Z,17.50
2022-09-15T04:11:06.806Z,17.50
2022-09-15T04:14:02.888Z,17.50
2022-09-15T04:16:38.191Z,17.50
2022-09-15T04:19:12.622Z,17.50
2022-09-15T04:21:48.927Z,17.50
2022-09-15T04:24:27.554Z,17.50
2022-09-15T04:27:02.792Z,17.50
2022-09-15T04:29:40.400Z,17.50
2022-09-15T04:32:22.191Z,17.40
2022-09-15T04:34:57.195Z,17.40
2022-09-15T04:38:12.370Z,17.40
2022-09-15T04:45:46.676Z,17.50
2022-09-15T04:51:40.607Z,17.50
2022-09-15T04:54:21.623Z,17.50
2022-09-15T04:57:39.973Z,17.50
2022-09-15T05:00:22.458Z,17.50
2022-09-15T05:03:29.492Z,17.50
2022-09-15T05:06:08.910Z,16.10
2022-09-15T05:08:59.546Z,17.50
2022-09-15T05:12:02.578Z,17.60
2022-09-15T05:14:38.254Z,17.60
2022-09-15T05:17:35.075Z,17.50
2022-09-15T05:20:11.603Z,17.50
2022-09-15T05:23:18.246Z,17.60
2022-09-15T05:26:13.809Z,17.60
2022-09-15T05:29:43.811Z,17.60
2022-09-15T05:32:46.743Z,17.60
2022-09-15T05:39:41.556Z,17.60
2022-09-15T05:42:25.415Z,17.60
2022-09-15T05:45:01.650Z,17.70
2022-09-15T05:47:49.118Z,17.70
2022-09-15T05:50:54.511Z,17.80
2022-09-15T05:53:38.862Z,17.80
2022-09-15T06:00:40.546Z,17.70
2022-09-15T06:03:24.477Z,17.80
2022-09-15T06:06:02.409Z,17.80
2022-09-15T06:09:00.995Z,17.80
2022-09-15T06:11:39.677Z,17.80
2022-09-15T06:14:53.191Z,17.80
2022-09-15T06:17:56.055Z,17.80
2022-09-15T06:20:52.407Z,17.70
2022-09-15T06:23:26.805Z,17.80
2022-09-15T06:26:28.412Z,17.80
2022-09-15T06:29:05.857Z,17.80
2022-09-15T06:31:52.368Z,17.90
2022-09-15T06:34:28.974Z,17.90
2022-09-15T06:37:21.695Z,18.00
2022-09-15T06:39:56.612Z,17.90
2022-09-15T06:42:33.598Z,18.00
2022-09-15T06:45:15.638Z,17.90
2022-09-15T06:48:20.221Z,17.90
2022-09-15T06:51:06.929Z,17.90
2022-09-15T06:53:58.311Z,17.90
2022-09-15T06:56:37.638Z,17.90
2022-09-15T06:59:13.264Z,17.90
2022-09-15T07:01:54.295Z,17.90
2022-09-15T07:04:29.282Z,18.00
2022-09-15T07:07:39.588Z,18.00
2022-09-15T07:10:20.055Z,18.10
2022-09-15T07:13:36.549Z,18.10
2022-09-15T07:16:16.863Z,18.10
2022-09-15T07:22:58.272Z,18.10
2022-09-15T07:25:40.532Z,18.10
2022-09-15T07:28:16.542Z,18.10
2022-09-15T07:30:53.699Z,18.00
2022-09-15T07:33:33.675Z,18.10
2022-09-15T07:36:16.009Z,18.00
2022-09-15T07:38:51.751Z,17.90
2022-09-15T07:42:19.382Z,18.00
2022-09-15T07:49:39.231Z,18.10
2022-09-15T07:56:09.423Z,18.30
2022-09-15T07:58:58.639Z,18.50
2022-09-15T08:01:45.589Z,17.10
2022-09-15T08:04:27.831Z,18.60
2022-09-15T08:07:48.675Z,18.70
2022-09-15T08:11:09.598Z,18.70
2022-09-15T08:13:48.285Z,18.90
2022-09-15T08:17:16.661Z,19.00
2022-09-15T08:24:28.200Z,19.20
2022-09-15T08:27:27.405Z,19.30
2022-09-15T08:30:03.930Z,19.30
2022-09-15T08:33:33.937Z,19.20
2022-09-15T08:36:16.293Z,19.30
2022-09-15T08:39:25.199Z,19.30
2022-09-15T08:42:52.850Z,19.30
2022-09-15T08:45:49.348Z,19.30
2022-09-15T08:48:31.093Z,19.20
2022-09-15T08:51:20.925Z,19.30
2022-09-15T08:54:02.167Z,19.30
2022-09-15T08:56:37.621Z,19.40
2022-09-15T08:59:35.194Z,19.30
2022-09-15T09:02:59.815Z,19.20
2022-09-15T09:05:45.994Z,19.50
2022-09-15T09:08:46.930Z,20.00
2022-09-15T09:12:03.438Z,20.30
2022-09-15T09:14:57.728Z,20.50
2022-09-15T09:17:50.484Z,20.40
2022-09-15T09:21:19.982Z,20.40
2022-09-15T09:24:05.148Z,20.20
2022-09-15T09:26:40.085Z,20.20
2022-09-15T09:29:19.170Z,20.20
2022-09-15T09:32:18.675Z,20.20
2022-09-15T09:38:51.086Z,20.20
2022-09-15T09:42:10.192Z,20.10
2022-09-15T09:44:44.421Z,20.00
2022-09-15T09:48:19.727Z,20.10
2022-09-15T09:51:55.720Z,20.20
2022-09-15T09:55:02.799Z,20.40
2022-09-15T10:05:25.423Z,20.70
2022-09-15T10:08:22.249Z,21.00
2022-09-15T10:11:04.439Z,21.00
2022-09-15T10:13:53.450Z,21.00
2022-09-15T10:16:35.967Z,21.10
2022-09-15T10:22:47.173Z,21.20
2022-09-15T10:25:59.034Z,21.20
2022-09-15T10:29:17.657Z,21.20
2022-09-15T10:31:58.094Z,21.00
2022-09-15T10:34:33.570Z,20.90
2022-09-15T10:37:19.151Z,20.80
2022-09-15T10:44:11.255Z,20.70
2022-09-15T10:46:55.703Z,20.70
2022-09-15T10:49:49.792Z,20.70
2022-09-15T10:52:33.228Z,20.90
2022-09-15T10:55:37.057Z,21.10
2022-09-15T10:58:45.803Z,21.30
2022-09-15T11:01:51.808Z,21.30
2022-09-15T11:05:17.925Z,21.20
2022-09-15T11:08:09.076Z,21.10
2022-09-15T11:11:11.020Z,21.10
2022-09-15T11:14:07.665Z,20.90
2022-09-15T11:16:55.380Z,20.70
2022-09-15T11:20:09.760Z,20.00
2022-09-15T11:22:49.909Z,19.40
2022-09-15T11:25:42.674Z,18.60
2022-09-15T11:28:40.689Z,18.20
2022-09-15T11:31:27.387Z,17.80
2022-09-15T11:34:28.061Z,17.60
2022-09-15T11:37:08.094Z,17.30
2022-09-15T11:43:42.969Z,16.60
2022-09-15T11:46:57.966Z,16.20
2022-09-15T11:49:55.678Z,15.90
2022-09-15T11:52:45.031Z,15.90
2022-09-15T11:55:27.561Z,15.90
2022-09-15T11:58:22.115Z,16.00
2022-09-15T12:01:08.994Z,15.70
2022-09-15T12:03:50.233Z,15.60
2022-09-15T12:10:38.857Z,15.50
2022-09-15T12:17:36.283Z,15.60
2022-09-15T12:24:31.655Z,15.80
2022-09-15T12:39:00.120Z,15.60
2022-09-15T12:41:48.702Z,15.60
2022-09-15T12:44:51.426Z,15.70
2022-09-15T12:47:34.450Z,14.30
2022-09-15T12:50:56.334Z,15.70
2022-09-15T12:57:29.347Z,15.60
2022-09-15T13:00:35.966Z,15.50
2022-09-15T13:03:30.045Z,15.50
2022-09-15T13:06:20.801Z,15.50
2022-09-15T13:08:58.170Z,15.50
2022-09-15T13:11:39.527Z,15.60
2022-09-15T13:14:44.360Z,15.70
2022-09-15T13:17:37.541Z,15.60
2022-09-15T13:20:51.845Z,15.70
2022-09-15T13:27:25.181Z,13.50
2022-09-15T13:30:12.132Z,15.80
2022-09-15T13:33:06.077Z,15.80
2022-09-15T13:36:15.326Z,15.60
2022-09-15T13:39:17.827Z,15.60
2022-09-15T13:42:32.051Z,15.20
2022-09-15T13:45:47.124Z,15.80
2022-09-15T13:48:43.832Z,15.90
2022-09-15T13:51:30.525Z,15.90
2022-09-15T13:54:08.408Z,16.10
2022-09-15T14:01:14.828Z,16.20
2022-09-15T14:04:35.127Z,16.30
2022-09-15T14:10:59.694Z,16.50
2022-09-15T14:13:36.159Z,16.80
2022-09-15T14:16:51.153Z,17.00
2022-09-15T14:19:41.457Z,14.30
2022-09-15T14:25:38.923Z,17.10
2022-09-15T14:28:44.520Z,17.20
2022-09-15T14:31:53.236Z,17.30
2022-09-15T14:34:43.574Z,17.30
2022-09-15T14:37:49.008Z,17.50
2022-09-15T14:40:30.983Z,17.40
2022-09-15T14:54:05.122Z,17.30
2022-09-15T15:00:40.398Z,17.30
2022-09-15T15:03:34.541Z,17.20
2022-09-15T15:06:47.841Z,17.20
2022-09-15T15:13:37.523Z,17.20
2022-09-15T15:16:21.922Z,17.20
2022-09-15T15:19:39.744Z,17.20
2022-09-15T15:26:35.604Z,17.30
2022-09-15T15:43:37.970Z,17.40
2022-09-15T15:46:47.484Z,17.30
2022-09-15T15:49:46.303Z,17.40
2022-09-15T15:56:25.827Z,17.40
2022-09-15T15:59:04.841Z,17.70
2022-09-15T16:01:48.205Z,17.40
2022-09-15T16:08:23.620Z,17.30
2022-09-15T16:14:45.868Z,17.00
2022-09-15T16:28:14.989Z,16.70
2022-09-15T16:30:54.503Z,16.70
2022-09-15T16:33:33.453Z,16.70
2022-09-15T16:36:15.605Z,16.60
2022-09-15T16:38:53.791Z,16.50
2022-09-15T16:41:29.210Z,16.50
2022-09-15T16:47:27.843Z,16.50
2022-09-15T16:50:04.573Z,16.40
2022-09-15T16:52:46.622Z,16.40
2022-09-15T16:55:31.780Z,15.00
2022-09-15T16:58:45.772Z,16.20
2022-09-15T17:01:44.911Z,16.20
2022-09-15T17:04:23.000Z,16.10
2022-09-15T17:06:57.898Z,16.10
2022-09-15T17:09:32.919Z,16.00
2022-09-15T17:12:57.738Z,16.00
2022-09-15T17:15:38.316Z,15.90
2022-09-15T17:22:09.956Z,15.60
2022-09-15T17:25:35.429Z,15.50
2022-09-15T17:28:11.834Z,15.50
2022-09-15T17:34:33.722Z,15.30
2022-09-15T17:41:17.926Z,15.30
2022-09-15T17:47:59.325Z,15.20
2022-09-15T17:50:39.595Z,15.20
2022-09-15T17:53:35.745Z,15.20
2022-09-15T17:56:44.867Z,15.10
2022-09-15T18:00:03.945Z,15.20
2022-09-15T18:03:06.458Z,15.10
2022-09-15T18:09:58.066Z,15.20
2022-09-15T18:12:45.321Z,15.30
2022-09-15T18:23:16.212Z,15.20
2022-09-15T18:27:02.005Z,15.70
2022-09-15T18:29:42.062Z,15.20
2022-09-15T18:32:47.081Z,15.20
2022-09-15T18:36:20.909Z,15.30
2022-09-15T18:42:54.310Z,15.40
2022-09-15T18:53:27.302Z,15.40
2022-09-15T18:56:20.241Z,15.40
2022-09-15T18:59:28.640Z,15.40
2022-09-15T19:05:51.398Z,15.40
2022-09-15T19:08:37.600Z,15.40
2022-09-15T19:11:41.165Z,15.40
2022-09-15T19:14:36.473Z,15.30
2022-09-15T19:17:22.593Z,15.40
2022-09-15T19:27:43.642Z,15.40
2022-09-15T19:34:12.016Z,15.40
2022-09-15T19:36:46.883Z,15.40
2022-09-15T19:39:28.752Z,16.90
2022-09-15T19:42:06.148Z,15.30
2022-09-15T19:44:58.308Z,15.30
2022-09-15T19:47:36.006Z,15.10
2022-09-15T19:50:12.113Z,15.10
2022-09-15T19:53:16.955Z,15.10
2022-09-15T19:55:52.809Z,15.10
2022-09-15T19:58:48.128Z,15.00
2022-09-15T20:01:33.186Z,15.00
2022-09-15T20:04:23.576Z,14.70
2022-09-15T20:06:59.268Z,14.60
2022-09-15T20:09:34.693Z,14.50
2022-09-15T20:12:09.717Z,14.50
2022-09-15T20:18:46.823Z,14.40
2022-09-15T20:21:50.686Z,14.50
2022-09-15T20:24:29.810Z,14.40
2022-09-15T20:27:17.148Z,14.30
2022-09-15T20:29:58.450Z,14.30
2022-09-15T20:32:35.019Z,14.30
2022-09-15T20:35:12.233Z,14.20
2022-09-15T20:37:53.012Z,14.10
2022-09-15T20:40:28.926Z,14.00
2022-09-15T20:43:05.960Z,14.00
2022-09-15T20:45:55.939Z,13.90
2022-09-15T20:48:36.455Z,13.90
2022-09-15T20:51:43.287Z,13.90
2022-09-15T20:54:41.079Z,13.90
2022-09-15T20:57:28.215Z,13.80
2022-09-15T21:01:02.800Z,13.70
2022-09-15T21:03:48.816Z,13.70
2022-09-15T21:06:30.223Z,13.70
2022-09-15T21:09:30.422Z,13.70
2022-09-15T21:13:01.664Z,13.60
2022-09-15T21:15:52.716Z,13.50
2022-09-15T21:18:30.096Z,13.50
2022-09-15T21:21:09.944Z,13.50
2022-09-15T21:24:01.208Z,13.50
2022-09-15T21:27:19.960Z,13.30
2022-09-15T21:29:58.441Z,13.30
2022-09-15T21:32:46.755Z,13.20
2022-09-15T21:35:50.539Z,13.20
2022-09-15T21:38:28.963Z,13.20
2022-09-15T21:41:03.709Z,13.20
2022-09-15T21:43:43.372Z,13.00
2022-09-15T21:46:30.078Z,13.00
2022-09-15T21:49:58.798Z,12.90
2022-09-15T21:53:22.136Z,12.90
2022-09-15T21:56:05.844Z,12.90
2022-09-15T21:58:43.296Z,12.90
2022-09-15T22:01:31.887Z,12.70
2022-09-15T22:04:07.894Z,12.70
2022-09-15T22:06:43.389Z,12.70
2022-09-15T22:09:28.406Z,12.70
2022-09-15T22:12:17.016Z,12.70
2022-09-15T22:15:12.710Z,12.70
2022-09-15T22:18:05.468Z,12.60
2022-09-15T22:20:40.867Z,12.70
2022-09-15T22:23:34.387Z,12.60
2022-09-15T22:26:12.617Z,12.60
2022-09-15T22:28:48.237Z,12.50
2022-09-15T22:31:30.658Z,12.50
2022-09-15T22:34:34.325Z,12.50
2022-09-15T22:37:09.635Z,12.40
2022-09-15T22:40:22.169Z,12.40
2022-09-15T22:42:56.810Z,12.30
2022-09-15T22:45:35.092Z,12.30
2022-09-15T22:48:28.446Z,12.30
2022-09-15T22:51:04.740Z,12.20
2022-09-15T22:54:03.227Z,12.20
2022-09-15T22:56:37.656Z,11.50
2022-09-15T22:59:14.088Z,12.10
2022-09-15T23:01:49.409Z,12.20
2022-09-15T23:04:39.402Z,12.20
2022-09-15T23:07:14.550Z,12.30
2022-09-15T23:09:49.769Z,12.20
2022-09-15T23:12:24.618Z,12.10
2022-09-15T23:15:04.758Z,12.10
2022-09-15T23:17:39.531Z,12.20
2022-09-15T23:20:24.782Z,12.10
2022-09-15T23:23:04.979Z,12.40
2022-09-15T23:25:46.830Z,12.20
2022-09-15T23:28:21.992Z,12.30
2022-09-15T23:31:00.572Z,12.50
2022-09-15T23:33:46.927Z,12.20
2022-09-15T23:36:26.695Z,12.30
2022-09-15T23:39:17.990Z,12.40
2022-09-15T23:41:53.217Z,12.40
2022-09-15T23:44:52.667Z,12.40
2022-09-15T23:47:28.656Z,12.50
2022-09-15T23:50:16.631Z,12.40
2022-09-15T23:53:18.659Z,12.50
2022-09-15T23:55:58.403Z,13.00
2022-09-15T23:59:04.745Z,12.50
